Terminal Aerodrome Forecast
Issued by NWS Paducah, KY

Home | Current Version | Previous Version | Graphics & Text | Print | Product List | Glossary On
Versions: 1 2 3 4 5 6 7 8 9 10 11 12 13 14 15 16 17 18 19
000
FTUS43 KPAH 222300
TAFEVV
TAF
KEVV 222320Z 2300/2324 25003KT P6SM SKC
      TEMPO 2305/2308 5SM BR
     FM230800 26002KT P6SM SCT150
     FM231400 30006KT P6SM -SHRA BKN035
     FM231700 32007KT P6SM BKN040=

USA.gov is the U.S. government's official web portal to all federal, state and local government web resources and services.